sensor_id;sensor_type;location;lat;lon;timestamp;P1;durP1;ratioP1;P2;durP2;ratioP2
41305;SDS011;27051;50.376;19.152;2023-04-15T00:00:42;19.30;;;7.60;;
41305;SDS011;27051;50.376;19.152;2023-04-15T00:03:15;16.80;;;7.70;;
41305;SDS011;27051;50.376;19.152;2023-04-15T00:05:41;15.40;;;7.10;;
41305;SDS011;27051;50.376;19.152;2023-04-15T00:08:08;15.10;;;8.00;;
41305;SDS011;27051;50.376;19.152;2023-04-15T00:10:35;17.80;;;7.20;;
41305;SDS011;27051;50.376;19.152;2023-04-15T00:13:02;15.60;;;7.60;;
41305;SDS011;27051;50.376;19.152;2023-04-15T00:15:28;17.40;;;8.80;;
41305;SDS011;27051;50.376;19.152;2023-04-15T00:17:55;20.90;;;8.70;;
41305;SDS011;27051;50.376;19.152;2023-04-15T00:20:22;21.60;;;9.30;;
41305;SDS011;27051;50.376;19.152;2023-04-15T00:22:50;22.40;;;10.10;;
41305;SDS011;27051;50.376;19.152;2023-04-15T00:25:16;19.80;;;9.00;;
41305;SDS011;27051;50.376;19.152;2023-04-15T00:27:42;21.30;;;9.70;;
41305;SDS011;27051;50.376;19.152;2023-04-15T00:30:09;21.30;;;9.50;;
41305;SDS011;27051;50.376;19.152;2023-04-15T00:32:36;20.60;;;10.20;;
41305;SDS011;27051;50.376;19.152;2023-04-15T00:35:02;20.00;;;9.20;;
41305;SDS011;27051;50.376;19.152;2023-04-15T00:37:29;19.80;;;9.80;;
41305;SDS011;27051;50.376;19.152;2023-04-15T00:39:55;20.00;;;9.50;;
41305;SDS011;27051;50.376;19.152;2023-04-15T00:42:22;18.80;;;8.20;;
41305;SDS011;27051;50.376;19.152;2023-04-15T00:44:50;16.00;;;7.30;;
41305;SDS011;27051;50.376;19.152;2023-04-15T00:47:17;18.80;;;7.40;;
41305;SDS011;27051;50.376;19.152;2023-04-15T00:49:44;13.20;;;6.90;;
41305;SDS011;27051;50.376;19.152;2023-04-15T00:52:10;12.80;;;6.20;;
41305;SDS011;27051;50.376;19.152;2023-04-15T00:54:37;12.90;;;5.90;;
41305;SDS011;27051;50.376;19.152;2023-04-15T00:57:05;13.30;;;6.30;;
41305;SDS011;27051;50.376;19.152;2023-04-15T00:59:34;12.50;;;6.90;;
41305;SDS011;27051;50.376;19.152;2023-04-15T01:02:01;12.10;;;5.80;;
41305;SDS011;27051;50.376;19.152;2023-04-15T01:04:30;12.20;;;6.10;;
41305;SDS011;27051;50.376;19.152;2023-04-15T01:06:57;12.90;;;6.20;;
41305;SDS011;27051;50.376;19.152;2023-04-15T01:09:24;12.30;;;6.40;;
41305;SDS011;27051;50.376;19.152;2023-04-15T01:11:50;11.50;;;7.00;;
41305;SDS011;27051;50.376;19.152;2023-04-15T01:14:17;13.40;;;6.70;;
41305;SDS011;27051;50.376;19.152;2023-04-15T01:16:44;14.20;;;6.50;;
41305;SDS011;27051;50.376;19.152;2023-04-15T01:19:11;13.70;;;6.70;;
41305;SDS011;27051;50.376;19.152;2023-04-15T01:21:41;13.40;;;6.70;;
41305;SDS011;27051;50.376;19.152;2023-04-15T01:24:09;15.50;;;7.20;;
41305;SDS011;27051;50.376;19.152;2023-04-15T01:26:36;14.30;;;7.00;;
41305;SDS011;27051;50.376;19.152;2023-04-15T01:29:04;17.30;;;6.70;;
41305;SDS011;27051;50.376;19.152;2023-04-15T01:31:33;13.70;;;6.50;;
41305;SDS011;27051;50.376;19.152;2023-04-15T01:34:00;13.60;;;6.70;;
41305;SDS011;27051;50.376;19.152;2023-04-15T01:36:27;13.90;;;6.70;;
41305;SDS011;27051;50.376;19.152;2023-04-15T01:38:55;13.20;;;5.90;;
41305;SDS011;27051;50.376;19.152;2023-04-15T01:41:25;12.20;;;6.80;;
41305;SDS011;27051;50.376;19.152;2023-04-15T01:43:54;11.60;;;6.00;;
41305;SDS011;27051;50.376;19.152;2023-04-15T01:46:22;14.20;;;7.10;;
41305;SDS011;27051;50.376;19.152;2023-04-15T01:48:49;15.30;;;6.50;;
41305;SDS011;27051;50.376;19.152;2023-04-15T01:51:15;12.30;;;6.20;;
41305;SDS011;27051;50.376;19.152;2023-04-15T01:53:42;14.30;;;7.50;;
41305;SDS011;27051;50.376;19.152;2023-04-15T01:56:08;15.30;;;8.70;;
41305;SDS011;27051;50.376;19.152;2023-04-15T01:58:35;20.80;;;9.20;;
41305;SDS011;27051;50.376;19.152;2023-04-15T02:01:02;15.80;;;9.40;;
41305;SDS011;27051;50.376;19.152;2023-04-15T02:03:30;17.40;;;9.40;;
41305;SDS011;27051;50.376;19.152;2023-04-15T02:05:57;20.30;;;9.40;;
41305;SDS011;27051;50.376;19.152;2023-04-15T02:08:25;18.10;;;9.10;;
41305;SDS011;27051;50.376;19.152;2023-04-15T02:10:52;15.90;;;7.80;;
41305;SDS011;27051;50.376;19.152;2023-04-15T02:13:18;18.00;;;9.20;;
41305;SDS011;27051;50.376;19.152;2023-04-15T02:15:48;13.80;;;7.40;;
41305;SDS011;27051;50.376;19.152;2023-04-15T02:18:15;18.70;;;9.60;;
41305;SDS011;27051;50.376;19.152;2023-04-15T02:20:42;19.70;;;10.40;;
41305;SDS011;27051;50.376;19.152;2023-04-15T02:23:09;15.80;;;8.30;;
41305;SDS011;27051;50.376;19.152;2023-04-15T02:25:36;16.50;;;8.30;;
41305;SDS011;27051;50.376;19.152;2023-04-15T02:28:07;16.30;;;8.20;;
41305;SDS011;27051;50.376;19.152;2023-04-15T02:30:34;17.40;;;8.30;;
41305;SDS011;27051;50.376;19.152;2023-04-15T02:33:01;17.20;;;8.00;;
41305;SDS011;27051;50.376;19.152;2023-04-15T02:35:28;12.80;;;6.90;;
41305;SDS011;27051;50.376;19.152;2023-04-15T02:37:55;13.80;;;7.40;;
41305;SDS011;27051;50.376;19.152;2023-04-15T02:40:21;12.60;;;6.60;;
41305;SDS011;27051;50.376;19.152;2023-04-15T02:42:48;15.40;;;7.40;;
41305;SDS011;27051;50.376;19.152;2023-04-15T02:45:14;13.30;;;6.90;;
41305;SDS011;27051;50.376;19.152;2023-04-15T02:47:41;13.00;;;7.00;;
41305;SDS011;27051;50.376;19.152;2023-04-15T02:50:09;13.50;;;6.50;;
41305;SDS011;27051;50.376;19.152;2023-04-15T02:52:39;13.00;;;7.00;;
41305;SDS011;27051;50.376;19.152;2023-04-15T02:55:10;12.50;;;7.00;;
41305;SDS011;27051;50.376;19.152;2023-04-15T02:57:37;17.40;;;8.00;;
41305;SDS011;27051;50.376;19.152;2023-04-15T03:00:04;15.90;;;7.80;;
41305;SDS011;27051;50.376;19.152;2023-04-15T03:02:35;11.80;;;7.10;;
41305;SDS011;27051;50.376;19.152;2023-04-15T03:05:03;13.10;;;7.70;;
41305;SDS011;27051;50.376;19.152;2023-04-15T03:07:32;22.40;;;11.80;;
41305;SDS011;27051;50.376;19.152;2023-04-15T03:10:00;25.40;;;12.10;;
41305;SDS011;27051;50.376;19.152;2023-04-15T03:12:26;38.20;;;19.80;;
41305;SDS011;27051;50.376;19.152;2023-04-15T03:14:53;43.10;;;21.60;;
41305;SDS011;27051;50.376;19.152;2023-04-15T03:17:20;34.20;;;17.90;;
41305;SDS011;27051;50.376;19.152;2023-04-15T03:19:46;32.60;;;16.70;;
41305;SDS011;27051;50.376;19.152;2023-04-15T03:22:13;30.30;;;15.80;;
41305;SDS011;27051;50.376;19.152;2023-04-15T03:24:40;59.40;;;28.80;;
41305;SDS011;27051;50.376;19.152;2023-04-15T03:27:06;182.40;;;82.80;;
41305;SDS011;27051;50.376;19.152;2023-04-15T03:29:33;178.80;;;85.50;;
41305;SDS011;27051;50.376;19.152;2023-04-15T03:32:01;136.00;;;62.50;;
41305;SDS011;27051;50.376;19.152;2023-04-15T03:34:27;106.90;;;47.60;;
41305;SDS011;27051;50.376;19.152;2023-04-15T03:36:54;52.50;;;24.20;;
41305;SDS011;27051;50.376;19.152;2023-04-15T03:39:21;49.70;;;23.60;;
41305;SDS011;27051;50.376;19.152;2023-04-15T03:41:49;41.70;;;18.60;;
41305;SDS011;27051;50.376;19.152;2023-04-15T03:44:28;33.00;;;14.50;;
41305;SDS011;27051;50.376;19.152;2023-04-15T03:46:55;36.10;;;17.10;;
41305;SDS011;27051;50.376;19.152;2023-04-15T03:49:22;33.30;;;15.10;;
41305;SDS011;27051;50.376;19.152;2023-04-15T03:51:49;31.90;;;14.70;;
41305;SDS011;27051;50.376;19.152;2023-04-15T03:54:16;29.00;;;14.30;;
41305;SDS011;27051;50.376;19.152;2023-04-15T03:56:42;33.70;;;15.30;;
41305;SDS011;27051;50.376;19.152;2023-04-15T03:59:08;34.60;;;16.80;;
41305;SDS011;27051;50.376;19.152;2023-04-15T04:01:35;25.30;;;12.90;;
41305;SDS011;27051;50.376;19.152;2023-04-15T04:04:02;29.10;;;13.70;;
41305;SDS011;27051;50.376;19.152;2023-04-15T04:06:28;27.60;;;14.20;;
41305;SDS011;27051;50.376;19.152;2023-04-15T04:08:55;19.90;;;10.10;;
41305;SDS011;27051;50.376;19.152;2023-04-15T04:11:21;22.20;;;11.10;;
41305;SDS011;27051;50.376;19.152;2023-04-15T04:14:00;20.60;;;11.10;;
41305;SDS011;27051;50.376;19.152;2023-04-15T04:16:27;23.30;;;10.80;;
41305;SDS011;27051;50.376;19.152;2023-04-15T04:18:53;21.00;;;11.10;;
41305;SDS011;27051;50.376;19.152;2023-04-15T04:21:20;23.80;;;10.40;;
41305;SDS011;27051;50.376;19.152;2023-04-15T04:23:47;29.40;;;12.10;;
41305;SDS011;27051;50.376;19.152;2023-04-15T04:26:13;25.60;;;12.60;;
41305;SDS011;27051;50.376;19.152;2023-04-15T04:28:39;28.80;;;13.70;;
41305;SDS011;27051;50.376;19.152;2023-04-15T04:31:06;29.70;;;14.30;;
41305;SDS011;27051;50.376;19.152;2023-04-15T04:33:33;27.90;;;12.10;;
41305;SDS011;27051;50.376;19.152;2023-04-15T04:36:00;26.10;;;11.90;;
41305;SDS011;27051;50.376;19.152;2023-04-15T04:38:27;30.50;;;14.00;;
41305;SDS011;27051;50.376;19.152;2023-04-15T04:40:54;27.80;;;11.70;;
41305;SDS011;27051;50.376;19.152;2023-04-15T04:43:21;25.10;;;11.00;;
41305;SDS011;27051;50.376;19.152;2023-04-15T04:45:48;19.90;;;10.20;;
41305;SDS011;27051;50.376;19.152;2023-04-15T04:48:14;20.60;;;9.80;;
41305;SDS011;27051;50.376;19.152;2023-04-15T04:50:44;18.00;;;7.70;;
41305;SDS011;27051;50.376;19.152;2023-04-15T04:53:10;14.80;;;7.40;;
41305;SDS011;27051;50.376;19.152;2023-04-15T04:55:37;16.50;;;8.10;;
41305;SDS011;27051;50.376;19.152;2023-04-15T04:58:03;29.10;;;12.80;;
41305;SDS011;27051;50.376;19.152;2023-04-15T05:00:30;27.30;;;12.60;;
41305;SDS011;27051;50.376;19.152;2023-04-15T05:02:56;24.40;;;11.10;;
41305;SDS011;27051;50.376;19.152;2023-04-15T05:05:23;22.60;;;9.90;;
41305;SDS011;27051;50.376;19.152;2023-04-15T05:07:50;18.60;;;9.40;;
41305;SDS011;27051;50.376;19.152;2023-04-15T05:10:16;25.60;;;13.20;;
41305;SDS011;27051;50.376;19.152;2023-04-15T05:12:43;23.50;;;12.00;;
41305;SDS011;27051;50.376;19.152;2023-04-15T05:15:09;28.80;;;14.90;;
41305;SDS011;27051;50.376;19.152;2023-04-15T05:17:39;26.00;;;14.40;;
41305;SDS011;27051;50.376;19.152;2023-04-15T05:20:06;27.30;;;14.40;;
41305;SDS011;27051;50.376;19.152;2023-04-15T05:22:33;24.30;;;12.20;;
41305;SDS011;27051;50.376;19.152;2023-04-15T05:25:00;24.70;;;11.70;;
41305;SDS011;27051;50.376;19.152;2023-04-15T05:27:26;25.60;;;13.20;;
41305;SDS011;27051;50.376;19.152;2023-04-15T05:29:53;35.80;;;18.90;;
41305;SDS011;27051;50.376;19.152;2023-04-15T05:32:19;59.80;;;30.70;;
41305;SDS011;27051;50.376;19.152;2023-04-15T05:34:46;62.10;;;32.80;;
41305;SDS011;27051;50.376;19.152;2023-04-15T05:37:13;43.40;;;22.30;;
41305;SDS011;27051;50.376;19.152;2023-04-15T05:39:40;29.50;;;14.30;;
41305;SDS011;27051;50.376;19.152;2023-04-15T05:42:06;20.40;;;10.30;;
41305;SDS011;27051;50.376;19.152;2023-04-15T05:44:33;18.40;;;9.50;;
41305;SDS011;27051;50.376;19.152;2023-04-15T05:46:59;18.00;;;9.00;;
41305;SDS011;27051;50.376;19.152;2023-04-15T05:49:26;16.30;;;8.80;;
41305;SDS011;27051;50.376;19.152;2023-04-15T05:52:01;17.00;;;9.20;;
41305;SDS011;27051;50.376;19.152;2023-04-15T05:54:28;17.20;;;9.20;;
41305;SDS011;27051;50.376;19.152;2023-04-15T05:56:55;21.50;;;10.90;;
41305;SDS011;27051;50.376;19.152;2023-04-15T05:59:23;19.70;;;10.20;;
41305;SDS011;27051;50.376;19.152;2023-04-15T06:01:49;26.50;;;13.30;;
41305;SDS011;27051;50.376;19.152;2023-04-15T06:04:16;23.90;;;12.60;;
41305;SDS011;27051;50.376;19.152;2023-04-15T06:06:42;21.90;;;12.20;;
41305;SDS011;27051;50.376;19.152;2023-04-15T06:09:09;24.40;;;12.60;;
41305;SDS011;27051;50.376;19.152;2023-04-15T06:11:36;23.80;;;11.80;;
41305;SDS011;27051;50.376;19.152;2023-04-15T06:14:02;24.80;;;13.10;;
41305;SDS011;27051;50.376;19.152;2023-04-15T06:16:28;23.90;;;11.30;;
41305;SDS011;27051;50.376;19.152;2023-04-15T06:18:55;20.40;;;10.00;;
41305;SDS011;27051;50.376;19.152;2023-04-15T06:21:22;19.30;;;9.50;;
41305;SDS011;27051;50.376;19.152;2023-04-15T06:23:56;18.90;;;9.30;;
41305;SDS011;27051;50.376;19.152;2023-04-15T06:26:24;20.30;;;10.50;;
41305;SDS011;27051;50.376;19.152;2023-04-15T06:28:51;15.50;;;7.90;;
41305;SDS011;27051;50.376;19.152;2023-04-15T06:31:17;17.80;;;9.20;;
41305;SDS011;27051;50.376;19.152;2023-04-15T06:33:44;19.50;;;9.10;;
41305;SDS011;27051;50.376;19.152;2023-04-15T06:36:11;19.40;;;8.60;;
41305;SDS011;27051;50.376;19.152;2023-04-15T06:38:38;19.50;;;9.00;;
41305;SDS011;27051;50.376;19.152;2023-04-15T06:41:04;19.90;;;9.30;;
41305;SDS011;27051;50.376;19.152;2023-04-15T06:43:32;17.30;;;7.80;;
41305;SDS011;27051;50.376;19.152;2023-04-15T06:45:59;15.10;;;7.10;;
41305;SDS011;27051;50.376;19.152;2023-04-15T06:48:26;14.20;;;5.30;;
41305;SDS011;27051;50.376;19.152;2023-04-15T06:50:54;10.60;;;5.00;;
41305;SDS011;27051;50.376;19.152;2023-04-15T06:53:20;9.50;;;5.00;;
41305;SDS011;27051;50.376;19.152;2023-04-15T06:55:47;9.00;;;4.70;;
41305;SDS011;27051;50.376;19.152;2023-04-15T06:58:13;10.30;;;4.80;;
41305;SDS011;27051;50.376;19.152;2023-04-15T07:00:40;11.60;;;5.60;;
41305;SDS011;27051;50.376;19.152;2023-04-15T07:03:07;11.00;;;5.90;;
41305;SDS011;27051;50.376;19.152;2023-04-15T07:05:33;11.30;;;5.70;;
41305;SDS011;27051;50.376;19.152;2023-04-15T07:08:00;11.60;;;5.80;;
41305;SDS011;27051;50.376;19.152;2023-04-15T07:10:26;11.90;;;6.30;;
41305;SDS011;27051;50.376;19.152;2023-04-15T07:12:53;12.30;;;5.70;;
41305;SDS011;27051;50.376;19.152;2023-04-15T07:15:19;10.90;;;5.30;;
41305;SDS011;27051;50.376;19.152;2023-04-15T07:17:46;13.30;;;5.90;;
41305;SDS011;27051;50.376;19.152;2023-04-15T07:20:12;11.20;;;5.00;;
41305;SDS011;27051;50.376;19.152;2023-04-15T07:22:39;12.30;;;5.70;;
41305;SDS011;27051;50.376;19.152;2023-04-15T07:25:06;11.40;;;5.30;;
41305;SDS011;27051;50.376;19.152;2023-04-15T07:27:33;11.60;;;5.40;;
41305;SDS011;27051;50.376;19.152;2023-04-15T07:30:02;11.80;;;5.30;;
41305;SDS011;27051;50.376;19.152;2023-04-15T07:32:29;11.80;;;5.60;;
41305;SDS011;27051;50.376;19.152;2023-04-15T07:34:56;9.20;;;4.60;;
41305;SDS011;27051;50.376;19.152;2023-04-15T07:37:22;11.70;;;5.20;;
41305;SDS011;27051;50.376;19.152;2023-04-15T07:39:49;11.60;;;5.40;;
41305;SDS011;27051;50.376;19.152;2023-04-15T07:42:15;9.00;;;4.70;;
41305;SDS011;27051;50.376;19.152;2023-04-15T07:44:42;11.30;;;4.90;;
41305;SDS011;27051;50.376;19.152;2023-04-15T07:47:08;9.00;;;4.20;;
41305;SDS011;27051;50.376;19.152;2023-04-15T07:49:35;10.20;;;4.50;;
41305;SDS011;27051;50.376;19.152;2023-04-15T07:52:01;10.40;;;5.10;;
41305;SDS011;27051;50.376;19.152;2023-04-15T07:54:28;9.90;;;4.70;;
41305;SDS011;27051;50.376;19.152;2023-04-15T07:56:54;8.70;;;4.90;;
41305;SDS011;27051;50.376;19.152;2023-04-15T07:59:21;7.10;;;3.80;;
41305;SDS011;27051;50.376;19.152;2023-04-15T08:01:48;9.60;;;4.20;;
41305;SDS011;27051;50.376;19.152;2023-04-15T08:04:15;7.20;;;3.80;;
41305;SDS011;27051;50.376;19.152;2023-04-15T08:06:42;7.10;;;3.90;;
41305;SDS011;27051;50.376;19.152;2023-04-15T08:09:10;7.10;;;3.50;;
41305;SDS011;27051;50.376;19.152;2023-04-15T08:11:37;7.00;;;3.60;;
41305;SDS011;27051;50.376;19.152;2023-04-15T08:14:03;7.00;;;3.40;;
41305;SDS011;27051;50.376;19.152;2023-04-15T08:16:30;5.50;;;3.10;;
41305;SDS011;27051;50.376;19.152;2023-04-15T08:18:56;5.40;;;3.20;;
41305;SDS011;27051;50.376;19.152;2023-04-15T08:21:23;6.20;;;3.40;;
41305;SDS011;27051;50.376;19.152;2023-04-15T08:23:50;4.60;;;3.10;;
41305;SDS011;27051;50.376;19.152;2023-04-15T08:26:18;33.70;;;19.40;;
41305;SDS011;27051;50.376;19.152;2023-04-15T08:28:45;7.80;;;4.40;;
41305;SDS011;27051;50.376;19.152;2023-04-15T08:31:13;8.40;;;3.40;;
41305;SDS011;27051;50.376;19.152;2023-04-15T08:33:40;6.90;;;3.50;;
41305;SDS011;27051;50.376;19.152;2023-04-15T08:36:08;5.80;;;3.00;;
41305;SDS011;27051;50.376;19.152;2023-04-15T08:38:34;6.50;;;3.40;;
41305;SDS011;27051;50.376;19.152;2023-04-15T08:41:11;8.10;;;3.80;;
41305;SDS011;27051;50.376;19.152;2023-04-15T08:43:56;11.20;;;5.50;;
41305;SDS011;27051;50.376;19.152;2023-04-15T08:46:26;13.10;;;5.60;;
41305;SDS011;27051;50.376;19.152;2023-04-15T08:48:57;10.70;;;5.30;;
41305;SDS011;27051;50.376;19.152;2023-04-15T08:51:23;9.20;;;5.10;;
41305;SDS011;27051;50.376;19.152;2023-04-15T08:53:50;9.60;;;4.80;;
41305;SDS011;27051;50.376;19.152;2023-04-15T08:56:18;9.50;;;4.50;;
41305;SDS011;27051;50.376;19.152;2023-04-15T08:58:50;9.20;;;5.40;;
41305;SDS011;27051;50.376;19.152;2023-04-15T09:01:17;10.80;;;5.30;;
41305;SDS011;27051;50.376;19.152;2023-04-15T09:03:44;8.80;;;4.50;;
41305;SDS011;27051;50.376;19.152;2023-04-15T09:06:13;8.60;;;4.70;;
41305;SDS011;27051;50.376;19.152;2023-04-15T09:08:42;9.80;;;5.40;;
41305;SDS011;27051;50.376;19.152;2023-04-15T09:11:09;12.90;;;5.40;;
41305;SDS011;27051;50.376;19.152;2023-04-15T09:13:35;64.30;;;40.20;;
41305;SDS011;27051;50.376;19.152;2023-04-15T09:16:02;20.00;;;10.60;;
41305;SDS011;27051;50.376;19.152;2023-04-15T09:18:34;10.30;;;5.20;;
41305;SDS011;27051;50.376;19.152;2023-04-15T09:21:12;11.30;;;5.10;;
41305;SDS011;27051;50.376;19.152;2023-04-15T09:23:50;11.00;;;5.30;;
41305;SDS011;27051;50.376;19.152;2023-04-15T09:26:29;11.60;;;4.40;;
41305;SDS011;27051;50.376;19.152;2023-04-15T09:29:01;10.80;;;4.40;;
41305;SDS011;27051;50.376;19.152;2023-04-15T09:31:29;9.40;;;4.50;;
41305;SDS011;27051;50.376;19.152;2023-04-15T09:33:56;9.10;;;4.30;;
41305;SDS011;27051;50.376;19.152;2023-04-15T09:36:22;11.20;;;5.20;;
41305;SDS011;27051;50.376;19.152;2023-04-15T09:38:55;11.30;;;5.40;;
41305;SDS011;27051;50.376;19.152;2023-04-15T09:41:23;7.60;;;4.10;;
41305;SDS011;27051;50.376;19.152;2023-04-15T09:43:50;6.30;;;3.90;;
41305;SDS011;27051;50.376;19.152;2023-04-15T09:46:17;9.80;;;5.00;;
41305;SDS011;27051;50.376;19.152;2023-04-15T09:48:44;9.80;;;4.80;;
41305;SDS011;27051;50.376;19.152;2023-04-15T09:51:10;9.70;;;3.90;;
41305;SDS011;27051;50.376;19.152;2023-04-15T09:53:37;7.20;;;3.70;;
41305;SDS011;27051;50.376;19.152;2023-04-15T09:56:03;7.30;;;4.00;;
41305;SDS011;27051;50.376;19.152;2023-04-15T09:58:31;7.10;;;3.60;;
41305;SDS011;27051;50.376;19.152;2023-04-15T10:00:59;9.00;;;4.10;;
41305;SDS011;27051;50.376;19.152;2023-04-15T10:03:30;9.40;;;4.00;;
41305;SDS011;27051;50.376;19.152;2023-04-15T10:05:59;6.40;;;3.50;;
41305;SDS011;27051;50.376;19.152;2023-04-15T10:08:27;6.80;;;3.40;;
41305;SDS011;27051;50.376;19.152;2023-04-15T10:10:55;7.60;;;3.60;;
41305;SDS011;27051;50.376;19.152;2023-04-15T10:13:23;9.30;;;4.90;;
41305;SDS011;27051;50.376;19.152;2023-04-15T10:15:56;10.80;;;4.40;;
41305;SDS011;27051;50.376;19.152;2023-04-15T10:18:31;12.00;;;6.60;;
41305;SDS011;27051;50.376;19.152;2023-04-15T10:21:00;9.20;;;4.40;;
41305;SDS011;27051;50.376;19.152;2023-04-15T10:23:27;9.20;;;4.70;;
41305;SDS011;27051;50.376;19.152;2023-04-15T10:25:54;8.60;;;4.30;;
41305;SDS011;27051;50.376;19.152;2023-04-15T10:28:22;8.20;;;4.40;;
41305;SDS011;27051;50.376;19.152;2023-04-15T10:30:49;11.70;;;4.60;;
41305;SDS011;27051;50.376;19.152;2023-04-15T10:33:18;9.40;;;4.70;;
41305;SDS011;27051;50.376;19.152;2023-04-15T10:35:46;12.90;;;5.70;;
41305;SDS011;27051;50.376;19.152;2023-04-15T10:39:00;11.50;;;5.40;;
41305;SDS011;27051;50.376;19.152;2023-04-15T10:43:54;9.10;;;5.20;;
41305;SDS011;27051;50.376;19.152;2023-04-15T10:46:39;10.80;;;4.70;;
41305;SDS011;27051;50.376;19.152;2023-04-15T10:51:37;11.60;;;4.70;;
41305;SDS011;27051;50.376;19.152;2023-04-15T10:54:04;13.50;;;8.10;;
41305;SDS011;27051;50.376;19.152;2023-04-15T10:56:40;19.40;;;10.70;;
41305;SDS011;27051;50.376;19.152;2023-04-15T10:59:08;13.00;;;6.40;;
41305;SDS011;27051;50.376;19.152;2023-04-15T11:01:53;13.10;;;6.00;;
41305;SDS011;27051;50.376;19.152;2023-04-15T11:12:52;22.90;;;13.50;;
41305;SDS011;27051;50.376;19.152;2023-04-15T11:15:26;15.80;;;8.10;;
41305;SDS011;27051;50.376;19.152;2023-04-15T11:17:55;12.20;;;5.80;;
41305;SDS011;27051;50.376;19.152;2023-04-15T11:20:22;23.50;;;13.00;;
41305;SDS011;27051;50.376;19.152;2023-04-15T11:22:50;16.60;;;9.10;;
41305;SDS011;27051;50.376;19.152;2023-04-15T11:25:22;15.80;;;8.10;;
41305;SDS011;27051;50.376;19.152;2023-04-15T11:27:49;12.50;;;6.40;;
41305;SDS011;27051;50.376;19.152;2023-04-15T11:30:17;11.50;;;5.40;;
41305;SDS011;27051;50.376;19.152;2023-04-15T11:32:45;9.00;;;5.40;;
41305;SDS011;27051;50.376;19.152;2023-04-15T11:35:11;22.80;;;11.60;;
41305;SDS011;27051;50.376;19.152;2023-04-15T11:37:38;17.30;;;7.80;;
41305;SDS011;27051;50.376;19.152;2023-04-15T11:40:05;11.30;;;5.60;;
41305;SDS011;27051;50.376;19.152;2023-04-15T11:42:34;11.50;;;5.60;;
41305;SDS011;27051;50.376;19.152;2023-04-15T11:45:11;16.10;;;8.10;;
41305;SDS011;27051;50.376;19.152;2023-04-15T11:47:40;11.70;;;6.20;;
41305;SDS011;27051;50.376;19.152;2023-04-15T11:50:17;11.20;;;5.20;;
41305;SDS011;27051;50.376;19.152;2023-04-15T11:53:00;18.80;;;9.60;;
41305;SDS011;27051;50.376;19.152;2023-04-15T11:55:28;14.90;;;6.00;;
41305;SDS011;27051;50.376;19.152;2023-04-15T12:00:50;17.30;;;5.70;;
41305;SDS011;27051;50.376;19.152;2023-04-15T12:03:24;8.20;;;4.60;;
41305;SDS011;27051;50.376;19.152;2023-04-15T12:14:29;8.30;;;4.20;;
41305;SDS011;27051;50.376;19.152;2023-04-15T12:16:58;17.20;;;8.70;;
41305;SDS011;27051;50.376;19.152;2023-04-15T12:19:25;18.30;;;8.60;;
41305;SDS011;27051;50.376;19.152;2023-04-15T12:22:01;8.00;;;4.30;;
41305;SDS011;27051;50.376;19.152;2023-04-15T12:24:38;6.70;;;3.50;;
41305;SDS011;27051;50.376;19.152;2023-04-15T12:27:06;7.00;;;3.60;;
41305;SDS011;27051;50.376;19.152;2023-04-15T12:29:34;6.30;;;3.40;;
41305;SDS011;27051;50.376;19.152;2023-04-15T12:34:36;7.20;;;3.70;;
41305;SDS011;27051;50.376;19.152;2023-04-15T12:37:05;6.20;;;3.50;;
41305;SDS011;27051;50.376;19.152;2023-04-15T12:39:48;8.60;;;4.20;;
41305;SDS011;27051;50.376;19.152;2023-04-15T12:42:15;6.70;;;3.60;;
41305;SDS011;27051;50.376;19.152;2023-04-15T12:44:43;16.10;;;6.30;;
41305;SDS011;27051;50.376;19.152;2023-04-15T12:47:10;8.20;;;4.20;;
41305;SDS011;27051;50.376;19.152;2023-04-15T12:49:37;5.80;;;3.50;;
41305;SDS011;27051;50.376;19.152;2023-04-15T12:52:04;4.30;;;2.80;;
41305;SDS011;27051;50.376;19.152;2023-04-15T12:54:31;6.40;;;3.10;;
41305;SDS011;27051;50.376;19.152;2023-04-15T12:56:58;4.70;;;2.80;;
41305;SDS011;27051;50.376;19.152;2023-04-15T12:59:25;4.50;;;2.70;;
41305;SDS011;27051;50.376;19.152;2023-04-15T13:01:52;6.10;;;2.70;;
41305;SDS011;27051;50.376;19.152;2023-04-15T13:04:18;4.00;;;2.40;;
41305;SDS011;27051;50.376;19.152;2023-04-15T13:06:45;4.20;;;2.40;;
41305;SDS011;27051;50.376;19.152;2023-04-15T13:09:12;6.20;;;3.20;;
41305;SDS011;27051;50.376;19.152;2023-04-15T13:11:38;3.80;;;2.20;;
41305;SDS011;27051;50.376;19.152;2023-04-15T13:14:06;3.70;;;2.50;;
41305;SDS011;27051;50.376;19.152;2023-04-15T13:16:33;5.20;;;2.30;;
41305;SDS011;27051;50.376;19.152;2023-04-15T13:19:01;2.80;;;2.40;;
41305;SDS011;27051;50.376;19.152;2023-04-15T13:21:29;4.10;;;2.30;;
41305;SDS011;27051;50.376;19.152;2023-04-15T13:23:55;4.20;;;2.60;;
41305;SDS011;27051;50.376;19.152;2023-04-15T13:26:22;9.80;;;4.10;;
41305;SDS011;27051;50.376;19.152;2023-04-15T13:28:48;10.70;;;4.90;;
41305;SDS011;27051;50.376;19.152;2023-04-15T13:31:14;11.90;;;4.60;;
41305;SDS011;27051;50.376;19.152;2023-04-15T13:33:41;10.10;;;4.90;;
41305;SDS011;27051;50.376;19.152;2023-04-15T13:36:07;13.70;;;5.90;;
41305;SDS011;27051;50.376;19.152;2023-04-15T13:38:34;18.30;;;9.20;;
41305;SDS011;27051;50.376;19.152;2023-04-15T13:41:04;13.20;;;5.50;;
41305;SDS011;27051;50.376;19.152;2023-04-15T13:43:30;12.70;;;6.90;;
41305;SDS011;27051;50.376;19.152;2023-04-15T13:45:56;5.90;;;4.20;;
41305;SDS011;27051;50.376;19.152;2023-04-15T13:48:23;7.70;;;4.20;;
41305;SDS011;27051;50.376;19.152;2023-04-15T13:50:49;10.50;;;5.00;;
41305;SDS011;27051;50.376;19.152;2023-04-15T13:53:16;5.20;;;3.50;;
41305;SDS011;27051;50.376;19.152;2023-04-15T13:55:42;6.60;;;3.10;;
41305;SDS011;27051;50.376;19.152;2023-04-15T13:58:08;7.10;;;3.40;;
41305;SDS011;27051;50.376;19.152;2023-04-15T14:00:35;4.70;;;3.10;;
41305;SDS011;27051;50.376;19.152;2023-04-15T14:03:01;2.60;;;2.40;;
41305;SDS011;27051;50.376;19.152;2023-04-15T14:05:28;2.40;;;2.20;;
41305;SDS011;27051;50.376;19.152;2023-04-15T14:07:55;2.50;;;2.30;;
41305;SDS011;27051;50.376;19.152;2023-04-15T14:10:21;3.60;;;2.60;;
41305;SDS011;27051;50.376;19.152;2023-04-15T14:12:48;5.40;;;2.50;;
41305;SDS011;27051;50.376;19.152;2023-04-15T14:15:14;3.00;;;2.50;;
41305;SDS011;27051;50.376;19.152;2023-04-15T14:17:41;2.70;;;2.50;;
41305;SDS011;27051;50.376;19.152;2023-04-15T14:20:07;3.50;;;2.90;;
41305;SDS011;27051;50.376;19.152;2023-04-15T14:22:34;3.10;;;2.40;;
41305;SDS011;27051;50.376;19.152;2023-04-15T14:25:01;4.80;;;3.30;;
41305;SDS011;27051;50.376;19.152;2023-04-15T14:27:28;8.00;;;3.80;;
41305;SDS011;27051;50.376;19.152;2023-04-15T14:29:54;5.10;;;3.70;;
41305;SDS011;27051;50.376;19.152;2023-04-15T14:32:20;6.10;;;4.70;;
41305;SDS011;27051;50.376;19.152;2023-04-15T14:34:47;6.70;;;3.50;;
41305;SDS011;27051;50.376;19.152;2023-04-15T14:37:13;6.70;;;4.60;;
41305;SDS011;27051;50.376;19.152;2023-04-15T14:39:40;3.00;;;2.50;;
41305;SDS011;27051;50.376;19.152;2023-04-15T14:42:06;12.60;;;8.80;;
41305;SDS011;27051;50.376;19.152;2023-04-15T14:44:33;3.70;;;2.40;;
41305;SDS011;27051;50.376;19.152;2023-04-15T14:46:59;2.60;;;2.40;;
41305;SDS011;27051;50.376;19.152;2023-04-15T14:49:26;8.70;;;2.70;;
41305;SDS011;27051;50.376;19.152;2023-04-15T14:51:52;6.90;;;3.40;;
41305;SDS011;27051;50.376;19.152;2023-04-15T14:54:19;2.30;;;1.80;;